Galeon Andalucia — EAIZ — position and weather

sailwx.info

Track history (hours):
 
Tides and Currents Weather Stations Pressure Air Temp Water Temp Dewpoint Dewpoint Depression Visibility Wind Speed Wind Dir Waves Ship Positions

Galeon Andalucia

Last reported at 2019-Dec-17 21:30 UTC. Time now 2020-Jan-25 03:31 UTC.
Position N 36°42' W 002°15'.
Warning: this ship's position is 38 days out of date.

Length 47 m; draft 3.2 m.

Type: Ship. MMSI: 225356000.

Date/timePositionNaut miles runAvg speedWind from/ knotsBaromVisibWave heightAir tempDewpointWater temp
2019-Dec-17 21:30N 36°42' W 002°15'6 5.9
2019-Dec-17 20:30N 36°42' W 002°08'4 7.3
2019-Dec-17 20:00N 36°44' W 002°04'110 7.5
2019-Dec-17 05:25N 38°03' W 000°27'194 6.6
2019-Dec-15 23:56N 40°49' E 001°42'24 8.2
2019-Dec-15 21:00N 41°07' E 002°03'4 7.9
2019-Dec-15 20:30N 41°10' E 002°06'4 7.8
2019-Dec-15 20:00N 41°13' E 002°10'11 7.2
2019-Dec-15 18:30N 41°22' E 002°18'11 7.1
2019-Dec-15 17:00N 41°31' E 002°26'5 0.2
2019-Dec-14 15:29N 41°33' E 002°33'1 1.9
2019-Dec-14 14:55N 41°33' E 002°34'1 2.4
2019-Dec-14 14:23N 41°34' E 002°35'3 1.5
2019-Dec-14 12:27N 41°33' E 002°32'1 0.3
2019-Dec-14 10:30N 41°32' E 002°32'4 3.6
2019-Dec-14 09:30N 41°34' E 002°36'  
2019-Dec-11 08:45N 41°32' E 002°27'1 0.9
2019-Dec-11 07:30N 41°31' E 002°26'5 3.3
2019-Dec-11 06:00N 41°26' E 002°25'11 7.4
2019-Dec-11 04:30N 41°16' E 002°18'7 7.0
2019-Dec-11 03:30N 41°10' E 002°12'3 6.5
2019-Dec-11 03:00N 41°08' E 002°09'  
Track history (hours):
 
Tides and Currents Weather Stations Pressure Air Temp Water Temp Dewpoint Dewpoint Depression Visibility Wind Speed Wind Dir Waves Ship Positions

Galeon Andalucia

Last reported at 2019-Dec-17 21:30 UTC. Time now 2020-Jan-25 03:31 UTC.
Position N 36°42' W 002°15'.
Warning: this ship's position is 38 days out of date.

Length 47 m; draft 3.2 m.

Type: Ship. MMSI: 225356000.

Date/timePositionNaut miles runAvg speedWind from/ knotsBaromVisibWave heightAir tempDewpointWater temp
2019-Dec-17 21:30N 36°42' W 002°15'6 5.9
2019-Dec-17 20:30N 36°42' W 002°08'4 7.3
2019-Dec-17 20:00N 36°44' W 002°04'110 7.5
2019-Dec-17 05:25N 38°03' W 000°27'194 6.6
2019-Dec-15 23:56N 40°49' E 001°42'24 8.2
2019-Dec-15 21:00N 41°07' E 002°03'4 7.9
2019-Dec-15 20:30N 41°10' E 002°06'4 7.8
2019-Dec-15 20:00N 41°13' E 002°10'11 7.2
2019-Dec-15 18:30N 41°22' E 002°18'11 7.1
2019-Dec-15 17:00N 41°31' E 002°26'5 0.2
2019-Dec-14 15:29N 41°33' E 002°33'1 1.9
2019-Dec-14 14:55N 41°33' E 002°34'1 2.4
2019-Dec-14 14:23N 41°34' E 002°35'3 1.5
2019-Dec-14 12:27N 41°33' E 002°32'1 0.3
2019-Dec-14 10:30N 41°32' E 002°32'4 3.6
2019-Dec-14 09:30N 41°34' E 002°36'  
2019-Dec-11 08:45N 41°32' E 002°27'1 0.9
2019-Dec-11 07:30N 41°31' E 002°26'5 3.3
2019-Dec-11 06:00N 41°26' E 002°25'11 7.4
2019-Dec-11 04:30N 41°16' E 002°18'7 7.0
2019-Dec-11 03:30N 41°10' E 002°12'3 6.5
2019-Dec-11 03:00N 41°08' E 002°09'  

Dump ship's entire track history